createdAt,value
2023-02-04T00:00:47.021Z,10
2023-02-04T00:01:55.313Z,10
2023-02-04T00:03:03.705Z,10
2023-02-04T00:04:12.167Z,7.7
2023-02-04T00:05:20.527Z,7.7
2023-02-04T00:06:28.877Z,7.7
2023-02-04T00:07:37.400Z,10.8
2023-02-04T00:08:45.730Z,10.8
2023-02-04T00:09:54.079Z,10.8
2023-02-04T00:11:02.611Z,10.6
2023-02-04T00:12:10.933Z,10.6
2023-02-04T00:13:19.247Z,10.6
2023-02-04T00:14:27.760Z,10.4
2023-02-04T00:15:36.088Z,10.4
2023-02-04T00:16:44.441Z,10.4
2023-02-04T00:17:52.952Z,10.2
2023-02-04T00:19:01.263Z,10.2
2023-02-04T00:20:09.635Z,10.2
2023-02-04T00:21:18.174Z,8.2
2023-02-04T00:22:26.522Z,8.2
2023-02-04T00:23:34.846Z,8.2
2023-02-04T00:24:43.371Z,8.7
2023-02-04T00:25:51.702Z,8.7
2023-02-04T00:27:00.017Z,8.7
2023-02-04T00:28:08.591Z,10.9
2023-02-04T00:29:16.868Z,10.9
2023-02-04T00:30:25.224Z,10.9
2023-02-04T00:31:33.846Z,12.4
2023-02-04T00:32:42.093Z,12.4
2023-02-04T00:33:50.395Z,12.4
2023-02-04T00:34:58.934Z,9
2023-02-04T00:36:07.249Z,9
2023-02-04T00:37:15.583Z,9
2023-02-04T00:38:24.103Z,11.5
2023-02-04T00:39:32.454Z,11.5
2023-02-04T00:40:40.773Z,11.5
2023-02-04T00:41:49.309Z,8
2023-02-04T00:42:57.633Z,8
2023-02-04T00:44:05.949Z,8
2023-02-04T00:45:14.500Z,7.1
2023-02-04T00:46:22.828Z,7.1
2023-02-04T00:47:31.148Z,7.1
2023-02-04T00:48:39.698Z,7.7
2023-02-04T00:49:47.998Z,7.7
2023-02-04T00:50:56.341Z,7.7
2023-02-04T00:52:04.884Z,6.4
2023-02-04T00:53:13.196Z,6.4
2023-02-04T00:54:21.542Z,6.4
2023-02-04T00:55:30.088Z,8.2
2023-02-04T00:56:38.418Z,8.2
2023-02-04T00:57:46.750Z,8.2
2023-02-04T00:58:55.279Z,9.8
2023-02-04T01:00:03.611Z,9.8
2023-02-04T01:01:11.970Z,9.8
2023-02-04T01:02:20.450Z,8.6
2023-02-04T01:03:28.770Z,8.6
2023-02-04T01:04:37.120Z,8.6
2023-02-04T01:05:45.635Z,7.4
2023-02-04T01:06:53.958Z,7.4
2023-02-04T01:08:02.302Z,7.4
2023-02-04T01:09:10.823Z,8.5
2023-02-04T01:10:19.159Z,8.5
2023-02-04T01:11:27.480Z,8.5
2023-02-04T01:12:36.035Z,8.5
2023-02-04T01:13:44.335Z,8.5
2023-02-04T01:14:52.660Z,8.5
2023-02-04T01:16:01.253Z,13.5
2023-02-04T01:17:09.513Z,13.5
2023-02-04T01:18:17.823Z,13.5
2023-02-04T01:19:26.349Z,10.5
2023-02-04T01:20:34.706Z,10.5
2023-02-04T01:21:43.006Z,10.5
2023-02-04T01:22:51.545Z,11.6
2023-02-04T01:23:59.847Z,11.6
2023-02-04T01:25:08.206Z,11.6
2023-02-04T01:26:16.766Z,11.9
2023-02-04T01:27:25.110Z,11.9
2023-02-04T01:28:33.452Z,11.9
2023-02-04T01:29:41.982Z,10.5
2023-02-04T01:30:50.331Z,10.5
2023-02-04T01:31:58.712Z,10.5
2023-02-04T01:33:07.173Z,7.7
2023-02-04T01:34:15.486Z,7.7
2023-02-04T01:35:23.853Z,7.7
2023-02-04T01:36:32.377Z,10.1
2023-02-04T01:37:40.730Z,10.1
2023-02-04T01:38:49.070Z,10.1
2023-02-04T01:39:57.610Z,11.1
2023-02-04T01:41:05.937Z,11.1
2023-02-04T01:42:14.258Z,11.1
2023-02-04T01:43:22.800Z,9.3
2023-02-04T01:44:31.131Z,9.3
2023-02-04T01:45:39.550Z,9.3
2023-02-04T01:46:47.970Z,13.8
2023-02-04T01:47:56.315Z,13.8
2023-02-04T01:49:04.675Z,13.8
2023-02-04T01:50:13.266Z,10
2023-02-04T01:51:21.531Z,10
2023-02-04T01:52:29.872Z,10
2023-02-04T01:53:38.366Z,11.1
2023-02-04T01:54:46.684Z,11.1
2023-02-04T01:55:55.032Z,11.1
2023-02-04T01:57:03.568Z,10.5
2023-02-04T01:58:11.908Z,10.5
2023-02-04T01:59:20.256Z,10.5
2023-02-04T02:00:28.972Z,12
2023-02-04T02:01:37.121Z,12
2023-02-04T02:02:45.450Z,12
2023-02-04T02:03:53.975Z,11.2
2023-02-04T02:05:02.300Z,11.2
2023-02-04T02:06:10.641Z,11.2
2023-02-04T02:07:19.168Z,10
2023-02-04T02:08:27.512Z,10
2023-02-04T02:09:35.804Z,10
2023-02-04T02:10:44.371Z,8.4
2023-02-04T02:11:52.677Z,8.4
2023-02-04T02:13:00.998Z,8.4
2023-02-04T02:14:09.544Z,10
2023-02-04T02:15:17.890Z,10
2023-02-04T02:16:26.252Z,10
2023-02-04T02:17:34.777Z,10.7
2023-02-04T02:18:43.087Z,10.7
2023-02-04T02:19:51.417Z,10.7
2023-02-04T02:20:59.961Z,10.1
2023-02-04T02:22:08.276Z,10.1
2023-02-04T02:23:16.609Z,10.1
2023-02-04T02:24:25.172Z,11.1
2023-02-04T02:25:33.469Z,11.1
2023-02-04T02:26:41.792Z,11.1
2023-02-04T02:27:50.391Z,12.1
2023-02-04T02:28:58.651Z,12.1
2023-02-04T02:30:06.966Z,12.1
2023-02-04T02:31:15.655Z,12.7
2023-02-04T02:32:23.880Z,12.7
2023-02-04T02:33:32.211Z,12.7
2023-02-04T02:34:40.730Z,11.8
2023-02-04T02:35:49.080Z,11.8
2023-02-04T02:36:57.392Z,11.8
2023-02-04T02:38:05.908Z,3
2023-02-04T02:39:14.227Z,3
2023-02-04T02:40:22.579Z,3
2023-02-04T02:41:31.093Z,0.5
2023-02-04T02:42:39.420Z,0.5
2023-02-04T02:43:47.738Z,0.5
2023-02-04T02:44:56.266Z,0.6
2023-02-04T02:46:04.647Z,0.6
2023-02-04T02:47:12.955Z,0.6
2023-02-04T02:48:21.477Z,0.3
2023-02-04T02:49:29.800Z,0.3
2023-02-04T02:50:38.152Z,0.3
2023-02-04T02:51:46.697Z,0.2
2023-02-04T02:52:55.025Z,0.2
2023-02-04T02:54:03.348Z,0.2
2023-02-04T02:55:11.903Z,0.5
2023-02-04T02:56:20.259Z,0.5
2023-02-04T02:57:28.572Z,0.5
2023-02-04T02:58:37.116Z,0.8
2023-02-04T02:59:45.425Z,0.8
2023-02-04T03:00:53.858Z,0.8
2023-02-04T03:02:02.286Z,1.3
2023-02-04T03:03:10.614Z,1.3
2023-02-04T03:04:18.936Z,1.3
2023-02-04T03:05:27.469Z,1
2023-02-04T03:06:35.789Z,1
2023-02-04T03:07:44.118Z,1
2023-02-04T03:08:52.662Z,1.7
2023-02-04T03:10:01.007Z,1.7
2023-02-04T03:11:09.334Z,1.7
2023-02-04T03:12:17.894Z,2.2
2023-02-04T03:13:26.226Z,2.2
2023-02-04T03:14:34.541Z,2.2
2023-02-04T03:15:43.122Z,2.1
2023-02-04T03:16:51.398Z,2.1
2023-02-04T03:17:59.728Z,2.1
2023-02-04T03:19:08.289Z,2.7
2023-02-04T03:20:16.845Z,2.7
2023-02-04T03:21:25.191Z,2.7
2023-02-04T03:22:33.714Z,2.6
2023-02-04T03:23:42.045Z,2.6
2023-02-04T03:24:50.374Z,2.6
2023-02-04T03:25:58.918Z,3.6
2023-02-04T03:27:07.254Z,3.6
2023-02-04T03:28:15.749Z,3.6
2023-02-04T03:29:24.112Z,2.9
2023-02-04T03:30:32.735Z,2.9
2023-02-04T03:31:40.934Z,2.9
2023-02-04T03:32:49.334Z,3
2023-02-04T03:33:57.654Z,3
2023-02-04T03:35:05.975Z,3
2023-02-04T03:36:14.499Z,3.7
2023-02-04T03:37:22.848Z,3.7
2023-02-04T03:38:31.180Z,3.7
2023-02-04T03:39:39.706Z,4.5
2023-02-04T03:40:48.030Z,4.5
2023-02-04T03:41:56.354Z,4.5
2023-02-04T03:43:04.890Z,2.9
2023-02-04T03:44:13.246Z,2.9
2023-02-04T03:45:21.548Z,2.9
2023-02-04T03:46:30.151Z,3.8
2023-02-04T03:47:38.420Z,3.8
2023-02-04T03:48:46.741Z,3.8
2023-02-04T03:49:55.270Z,3.3
2023-02-04T03:51:03.585Z,3.3
2023-02-04T03:52:11.918Z,3.3
2023-02-04T03:53:20.448Z,4.1
2023-02-04T03:54:28.764Z,4.1
2023-02-04T03:55:37.081Z,4.1
2023-02-04T03:56:45.629Z,3.9
2023-02-04T03:57:53.948Z,3.9
2023-02-04T03:59:02.281Z,3.9
2023-02-04T04:00:10.829Z,3.3
2023-02-04T04:01:19.206Z,3.3
2023-02-04T04:02:27.616Z,3.3
2023-02-04T04:03:36.121Z,3.6
2023-02-04T04:04:44.435Z,3.6
2023-02-04T04:05:52.750Z,3.6
2023-02-04T04:07:01.297Z,3.1
2023-02-04T04:08:09.642Z,3.1
2023-02-04T04:09:17.944Z,3.1
2023-02-04T04:10:26.469Z,5
2023-02-04T04:11:34.794Z,5
2023-02-04T04:12:43.124Z,5
2023-02-04T04:13:51.669Z,2.8
2023-02-04T04:14:59.996Z,2.8
2023-02-04T04:16:08.400Z,2.8
2023-02-04T04:17:16.882Z,4.3
2023-02-04T04:18:25.215Z,4.3
2023-02-04T04:19:33.543Z,4.3
2023-02-04T04:20:42.072Z,4.4
2023-02-04T04:21:50.400Z,4.4
2023-02-04T04:22:58.727Z,4.4
2023-02-04T04:24:07.250Z,3.9
2023-02-04T04:25:15.572Z,3.9
2023-02-04T04:26:23.905Z,3.9
2023-02-04T04:27:32.440Z,3.2
2023-02-04T04:28:40.762Z,3.2
2023-02-04T04:29:49.079Z,3.2
2023-02-04T04:30:57.708Z,3.4
2023-02-04T04:32:06.014Z,3.4
2023-02-04T04:33:14.262Z,3.4
2023-02-04T04:34:22.800Z,2.7
2023-02-04T04:35:31.118Z,2.7
2023-02-04T04:36:39.432Z,2.7
2023-02-04T04:37:47.963Z,3.3
2023-02-04T04:38:56.285Z,3.3
2023-02-04T04:40:04.613Z,3.3
2023-02-04T04:41:13.146Z,3.5
2023-02-04T04:42:21.487Z,3.5
2023-02-04T04:43:29.794Z,3.5
2023-02-04T04:44:38.346Z,2.8
2023-02-04T04:45:46.701Z,2.8
2023-02-04T04:46:55.117Z,2.8
2023-02-04T04:48:03.706Z,3.2
2023-02-04T04:49:11.936Z,3.2
2023-02-04T04:50:20.254Z,3.2
2023-02-04T04:51:28.795Z,5.6
2023-02-04T04:52:37.156Z,5.6
2023-02-04T04:53:45.483Z,5.6
2023-02-04T04:54:54.021Z,2.8
2023-02-04T04:56:02.364Z,2.8
2023-02-04T04:57:10.677Z,2.8
2023-02-04T04:58:19.223Z,3.5
2023-02-04T04:59:27.546Z,3.5
2023-02-04T05:00:35.925Z,3.5
2023-02-04T05:01:44.435Z,3.2
2023-02-04T05:02:52.786Z,3.2
2023-02-04T05:04:01.139Z,3.2
2023-02-04T05:05:09.752Z,2.7
2023-02-04T05:06:17.999Z,2.7
2023-02-04T05:07:26.339Z,2.7
2023-02-04T05:08:34.896Z,3.5
2023-02-04T05:09:43.246Z,3.5
2023-02-04T05:10:51.574Z,3.5
2023-02-04T05:12:00.141Z,3.5
2023-02-04T05:13:08.470Z,3.5
2023-02-04T05:14:16.802Z,3.5
2023-02-04T05:15:25.326Z,3.4
2023-02-04T05:16:33.790Z,3.4
2023-02-04T05:17:42.013Z,3.4
2023-02-04T05:18:50.564Z,10.8
2023-02-04T05:19:58.917Z,10.8
2023-02-04T05:21:07.221Z,10.8
2023-02-04T05:22:15.742Z,25.700001
2023-02-04T05:23:24.089Z,25.700001
2023-02-04T05:24:32.424Z,25.700001
2023-02-04T05:25:40.960Z,16.700001
2023-02-04T05:26:49.306Z,16.700001
2023-02-04T05:27:57.675Z,16.700001
2023-02-04T05:29:06.199Z,10.1
2023-02-04T05:30:14.591Z,10.1
2023-02-04T05:31:23.005Z,10.1
2023-02-04T05:32:31.434Z,12.3
2023-02-04T05:33:39.767Z,12.3
2023-02-04T05:34:48.117Z,12.3
2023-02-04T05:35:56.683Z,6.2
2023-02-04T05:37:04.985Z,6.2
2023-02-04T05:38:13.338Z,6.2
2023-02-04T05:39:21.874Z,7
2023-02-04T05:40:30.467Z,7
2023-02-04T05:41:38.539Z,7
2023-02-04T05:42:47.085Z,4
2023-02-04T05:43:55.469Z,4
2023-02-04T05:45:03.811Z,4
2023-02-04T05:46:12.365Z,7.5
2023-02-04T05:47:20.696Z,7.5
2023-02-04T05:48:29.038Z,7.5
2023-02-04T05:49:37.604Z,4.1
2023-02-04T05:50:45.923Z,4.1
2023-02-04T05:51:54.294Z,4.1
2023-02-04T05:53:02.803Z,5.1
2023-02-04T05:54:11.133Z,5.1
2023-02-04T05:55:19.455Z,5.1
2023-02-04T05:56:27.984Z,4.2
2023-02-04T05:57:36.317Z,4.2
2023-02-04T05:58:44.657Z,4.2
2023-02-04T05:59:53.192Z,4.9
2023-02-04T06:01:01.585Z,4.9
2023-02-04T06:02:09.814Z,4.9
2023-02-04T06:03:18.396Z,6.4
2023-02-04T06:04:26.725Z,6.4
2023-02-04T06:05:35.010Z,6.4
2023-02-04T06:06:43.548Z,4.7
2023-02-04T06:07:51.897Z,4.7
2023-02-04T06:09:00.221Z,4.7
2023-02-04T06:10:08.762Z,4.2
2023-02-04T06:11:17.104Z,4.2
2023-02-04T06:12:25.433Z,4.2
2023-02-04T06:13:33.963Z,3.5
2023-02-04T06:14:42.296Z,3.5
2023-02-04T06:15:50.636Z,3.5
2023-02-04T06:16:59.238Z,4.7
2023-02-04T06:18:07.499Z,4.7
2023-02-04T06:19:15.831Z,4.7
2023-02-04T06:20:24.358Z,3.6
2023-02-04T06:21:32.732Z,3.6
2023-02-04T06:22:41.060Z,3.6
2023-02-04T06:23:49.729Z,4.5
2023-02-04T06:24:57.925Z,4.5
2023-02-04T06:26:06.267Z,4.5
2023-02-04T06:27:14.796Z,3.2
2023-02-04T06:28:23.114Z,3.2
2023-02-04T06:29:31.449Z,3.2
2023-02-04T06:30:39.989Z,2.2
2023-02-04T06:31:48.468Z,2.2
2023-02-04T06:32:56.636Z,2.2
2023-02-04T06:34:05.166Z,10.7
2023-02-04T06:35:13.497Z,10.7
2023-02-04T06:36:21.818Z,10.7
2023-02-04T06:37:30.351Z,28.200001
2023-02-04T06:38:38.675Z,28.200001
2023-02-04T06:39:47.036Z,28.200001
2023-02-04T06:40:55.543Z,5.3
2023-02-04T06:42:03.875Z,5.3
2023-02-04T06:43:12.214Z,5.3
2023-02-04T06:44:20.737Z,6.3
2023-02-04T06:45:29.077Z,6.3
2023-02-04T06:46:37.421Z,6.3
2023-02-04T06:47:45.941Z,7.1
2023-02-04T06:48:54.276Z,7.1
2023-02-04T06:50:02.614Z,7.1
2023-02-04T06:51:11.125Z,8.6
2023-02-04T06:52:19.438Z,8.6
2023-02-04T06:53:27.792Z,8.6
2023-02-04T06:54:36.356Z,14.7
2023-02-04T06:55:44.729Z,14.7
2023-02-04T06:56:53.032Z,14.7
2023-02-04T06:58:01.585Z,6.1
2023-02-04T06:59:09.907Z,6.1
2023-02-04T07:00:18.228Z,6.1
2023-02-04T07:01:26.857Z,4.6
2023-02-04T07:02:35.184Z,4.6
2023-02-04T07:03:43.446Z,4.6
2023-02-04T07:04:51.990Z,5.2
2023-02-04T07:06:00.335Z,5.2
2023-02-04T07:07:08.694Z,5.2
2023-02-04T07:08:17.236Z,4.7
2023-02-04T07:09:25.560Z,4.7
2023-02-04T07:10:34.299Z,4.7
2023-02-04T07:11:42.448Z,3.9
2023-02-04T07:12:50.757Z,3.9
2023-02-04T07:13:59.091Z,3.9
2023-02-04T07:15:07.615Z,6
2023-02-04T07:16:16.023Z,6
2023-02-04T07:17:24.257Z,6
2023-02-04T07:18:32.796Z,12.5
2023-02-04T07:19:41.143Z,12.5
2023-02-04T07:20:49.471Z,12.5
2023-02-04T07:21:58.009Z,7.7
2023-02-04T07:23:06.331Z,7.7
2023-02-04T07:24:14.645Z,7.7
2023-02-04T07:25:23.183Z,3.8
2023-02-04T07:26:31.522Z,3.8
2023-02-04T07:27:39.884Z,3.8
2023-02-04T07:28:48.372Z,4.4
2023-02-04T07:29:56.697Z,4.4
2023-02-04T07:31:05.114Z,4.4
2023-02-04T07:32:13.568Z,3.5
2023-02-04T07:33:21.940Z,3.5
2023-02-04T07:34:30.266Z,3.5
2023-02-04T07:35:38.825Z,2.9
2023-02-04T07:36:47.254Z,2.9
2023-02-04T07:37:55.478Z,2.9
2023-02-04T07:39:04.026Z,6.7
2023-02-04T07:40:12.384Z,6.7
2023-02-04T07:41:20.908Z,6.7
2023-02-04T07:42:29.437Z,3.4
2023-02-04T07:43:37.850Z,3.4
2023-02-04T07:44:46.160Z,3.4
2023-02-04T07:45:54.844Z,5.2
2023-02-04T07:47:03.053Z,5.2
2023-02-04T07:48:11.391Z,5.2
2023-02-04T07:49:19.939Z,6.5
2023-02-04T07:50:28.263Z,6.5
2023-02-04T07:51:36.556Z,6.5
2023-02-04T07:52:45.102Z,5
2023-02-04T07:53:53.431Z,5
2023-02-04T07:55:01.770Z,5
2023-02-04T07:56:10.288Z,5.1
2023-02-04T07:57:20.356Z,5.1
2023-02-04T07:58:26.923Z,5.1
2023-02-04T07:59:35.502Z,5.6
2023-02-04T08:00:43.807Z,5.6
2023-02-04T08:01:52.142Z,5.6
2023-02-04T08:03:00.736Z,3.6
2023-02-04T08:04:08.995Z,3.6
2023-02-04T08:05:17.328Z,3.6
2023-02-04T08:06:25.862Z,9.9
2023-02-04T08:07:34.200Z,9.9
2023-02-04T08:08:42.535Z,9.9
2023-02-04T08:09:51.086Z,15.7
2023-02-04T08:10:59.443Z,15.7
2023-02-04T08:12:07.786Z,15.7
2023-02-04T08:13:16.315Z,3.5
2023-02-04T08:14:24.636Z,3.5
2023-02-04T08:15:32.981Z,3.5
2023-02-04T08:16:41.486Z,3.9
2023-02-04T08:17:49.815Z,3.9
2023-02-04T08:18:58.140Z,3.9
2023-02-04T08:20:06.684Z,2.8
2023-02-04T08:21:15.017Z,2.8
2023-02-04T08:22:23.363Z,2.8
2023-02-04T08:23:31.924Z,3.3
2023-02-04T08:24:40.266Z,3.3
2023-02-04T08:25:48.609Z,3.3
2023-02-04T08:26:57.146Z,4.8
2023-02-04T08:28:05.554Z,4.8
2023-02-04T08:29:13.812Z,4.8
2023-02-04T08:30:22.356Z,3.5
2023-02-04T08:31:30.865Z,3.5
2023-02-04T08:32:38.980Z,3.5
2023-02-04T08:33:47.514Z,4.7
2023-02-04T08:34:55.841Z,4.7
2023-02-04T08:36:04.174Z,4.7
2023-02-04T08:37:12.717Z,4.6
2023-02-04T08:38:21.065Z,4.6
2023-02-04T08:39:29.390Z,4.6
2023-02-04T08:40:37.991Z,6.5
2023-02-04T08:41:46.297Z,6.5
2023-02-04T08:42:54.652Z,6.5
2023-02-04T08:44:03.203Z,7.7
2023-02-04T08:45:11.548Z,7.7
2023-02-04T08:46:19.919Z,7.7
2023-02-04T08:47:28.439Z,3.9
2023-02-04T08:48:36.766Z,3.9
2023-02-04T08:49:45.112Z,3.9
2023-02-04T08:50:53.640Z,2.7
2023-02-04T08:52:01.985Z,2.7
2023-02-04T08:53:10.356Z,2.7
2023-02-04T08:54:18.910Z,2.9
2023-02-04T08:55:27.238Z,2.9
2023-02-04T08:56:37.692Z,2.9
2023-02-04T08:57:44.156Z,3
2023-02-04T08:58:52.516Z,3
2023-02-04T09:00:00.822Z,3
2023-02-04T09:01:09.470Z,3.8
2023-02-04T09:02:17.723Z,3.8
2023-02-04T09:03:26.040Z,3.8
2023-02-04T09:04:34.588Z,10.8
2023-02-04T09:05:43.001Z,10.8
2023-02-04T09:06:51.324Z,10.8
2023-02-04T09:07:59.864Z,3.3
2023-02-04T09:09:08.188Z,3.3
2023-02-04T09:10:16.519Z,3.3
2023-02-04T09:11:25.052Z,3.7
2023-02-04T09:12:33.381Z,3.7
2023-02-04T09:13:44.583Z,3.7
2023-02-04T09:14:53.139Z,18.1
2023-02-04T09:16:01.543Z,18.1
2023-02-04T09:17:09.796Z,18.1
2023-02-04T09:18:18.325Z,5.7
2023-02-04T09:19:26.674Z,5.7
2023-02-04T09:20:34.975Z,5.7
2023-02-04T09:21:43.502Z,5.5
2023-02-04T09:22:51.878Z,5.5
2023-02-04T09:24:00.195Z,5.5
2023-02-04T09:25:08.718Z,3.1
2023-02-04T09:26:17.049Z,3.1
2023-02-04T09:27:25.378Z,3.1
2023-02-04T09:28:33.946Z,4.7
2023-02-04T09:29:42.419Z,4.7
2023-02-04T09:30:50.749Z,4.7
2023-02-04T09:31:59.319Z,2.4
2023-02-04T09:33:07.633Z,2.4
2023-02-04T09:34:15.989Z,2.4
2023-02-04T09:35:24.563Z,3.2
2023-02-04T09:36:32.876Z,3.2
2023-02-04T09:37:41.204Z,3.2
2023-02-04T09:38:49.742Z,3.3
2023-02-04T09:39:58.079Z,3.3
2023-02-04T09:41:06.416Z,3.3
2023-02-04T09:42:14.949Z,2.4
2023-02-04T09:43:23.261Z,2.4
2023-02-04T09:44:31.671Z,2.4
2023-02-04T09:45:40.263Z,2.5
2023-02-04T09:46:48.525Z,2.5
2023-02-04T09:47:56.860Z,2.5
2023-02-04T09:49:05.372Z,2.9
2023-02-04T09:50:13.706Z,2.9
2023-02-04T09:51:22.062Z,2.9
2023-02-04T09:52:30.592Z,3.5
2023-02-04T09:53:38.938Z,3.5
2023-02-04T09:54:47.266Z,3.5
2023-02-04T09:55:55.794Z,2
2023-02-04T09:57:04.130Z,2
2023-02-04T09:58:12.447Z,2
2023-02-04T09:59:21.001Z,1.3
2023-02-04T10:00:29.357Z,1.3
2023-02-04T10:01:37.686Z,1.3
2023-02-04T10:02:46.231Z,1
2023-02-04T10:03:54.543Z,1
2023-02-04T10:05:02.855Z,1
2023-02-04T10:06:11.400Z,2
2023-02-04T10:07:19.756Z,2
2023-02-04T10:08:28.060Z,2
2023-02-04T10:09:36.605Z,0.9
2023-02-04T10:10:44.917Z,0.9
2023-02-04T10:11:53.270Z,0.9
2023-02-04T10:13:01.801Z,1.5
2023-02-04T10:14:10.119Z,1.5
2023-02-04T10:15:18.452Z,1.5
2023-02-04T10:16:27.022Z,1.3
2023-02-04T10:17:35.300Z,1.3
2023-02-04T10:18:43.646Z,1.3
2023-02-04T10:19:52.200Z,1
2023-02-04T10:21:00.520Z,1
2023-02-04T10:22:08.859Z,1
2023-02-04T10:23:17.425Z,2.3
2023-02-04T10:24:25.730Z,2.3
2023-02-04T10:25:34.062Z,2.3
2023-02-04T10:26:42.604Z,1.2
2023-02-04T10:27:51.048Z,1.2
2023-02-04T10:28:59.306Z,1.2
2023-02-04T10:30:07.841Z,1.5
2023-02-04T10:31:16.284Z,1.5
2023-02-04T10:32:24.476Z,1.5
2023-02-04T10:33:33.050Z,1.4
2023-02-04T10:34:41.368Z,1.4
2023-02-04T10:35:49.702Z,1.4
2023-02-04T10:36:58.245Z,2
2023-02-04T10:38:06.574Z,2
2023-02-04T10:39:14.925Z,2
2023-02-04T10:40:23.436Z,2.6
2023-02-04T10:41:31.747Z,2.6
2023-02-04T10:42:40.074Z,2.6
2023-02-04T10:43:48.590Z,1.3
2023-02-04T10:44:56.938Z,1.3
2023-02-04T10:46:05.321Z,1.3
2023-02-04T10:47:13.829Z,2.1
2023-02-04T10:48:22.189Z,2.1
2023-02-04T10:49:30.520Z,2.1
2023-02-04T10:50:39.143Z,2
2023-02-04T10:51:47.459Z,2
2023-02-04T10:52:55.836Z,2
2023-02-04T10:54:04.365Z,4.7
2023-02-04T10:55:12.778Z,4.7
2023-02-04T10:56:21.047Z,4.7
2023-02-04T10:57:29.580Z,35.5
2023-02-04T10:58:37.914Z,35.5
2023-02-04T10:59:46.283Z,35.5
2023-02-04T11:00:54.827Z,2.7
2023-02-04T11:02:03.142Z,2.7
2023-02-04T11:03:11.500Z,2.7
2023-02-04T11:04:20.039Z,5
2023-02-04T11:05:28.410Z,5
2023-02-04T11:06:36.733Z,5
2023-02-04T11:07:45.271Z,3.4
2023-02-04T11:08:53.623Z,3.4
2023-02-04T11:10:01.921Z,3.4
2023-02-04T11:11:10.509Z,11
2023-02-04T11:12:18.824Z,11
2023-02-04T11:13:27.184Z,11
2023-02-04T11:14:35.707Z,21.4
2023-02-04T11:15:44.123Z,21.4
2023-02-04T11:16:52.386Z,21.4
2023-02-04T11:18:00.911Z,7.3
2023-02-04T11:19:09.260Z,7.3
2023-02-04T11:20:17.698Z,7.3
2023-02-04T11:21:26.172Z,25.6
2023-02-04T11:22:34.480Z,25.6
2023-02-04T11:23:42.840Z,25.6
2023-02-04T11:24:51.390Z,18
2023-02-04T11:25:59.734Z,18
2023-02-04T11:27:08.098Z,18
2023-02-04T11:28:16.699Z,5.7
2023-02-04T11:29:24.972Z,5.7
2023-02-04T11:30:33.405Z,5.7
2023-02-04T11:31:42.087Z,5.5
2023-02-04T11:32:50.302Z,5.5
2023-02-04T11:33:58.616Z,5.5
2023-02-04T11:35:07.161Z,6.2
2023-02-04T11:36:15.494Z,6.2
2023-02-04T11:37:23.834Z,6.2
2023-02-04T11:38:32.365Z,6.9
2023-02-04T11:39:40.699Z,6.9
2023-02-04T11:40:49.028Z,6.9
2023-02-04T11:41:57.593Z,2.6
2023-02-04T11:43:05.958Z,2.6
2023-02-04T11:44:14.283Z,2.6
2023-02-04T11:45:22.806Z,5.3
2023-02-04T11:46:31.196Z,5.3
2023-02-04T11:47:39.473Z,5.3
2023-02-04T11:48:47.994Z,3.1
2023-02-04T11:49:56.322Z,3.1
2023-02-04T11:51:04.658Z,3.1
2023-02-04T11:52:13.200Z,4.8
2023-02-04T11:53:21.518Z,4.8
2023-02-04T11:54:29.830Z,4.8
2023-02-04T11:55:38.347Z,3.1
2023-02-04T11:56:46.683Z,3.1
2023-02-04T11:57:55.035Z,3.1
2023-02-04T11:59:03.570Z,6.4
2023-02-04T12:00:11.864Z,6.4
2023-02-04T12:01:20.205Z,6.4
2023-02-04T12:02:28.816Z,20.6
2023-02-04T12:03:37.164Z,20.6
2023-02-04T12:04:45.415Z,20.6
2023-02-04T12:05:53.961Z,3.5
2023-02-04T12:07:02.299Z,3.5
2023-02-04T12:08:11.812Z,3.5
2023-02-04T12:09:19.154Z,5.5
2023-02-04T12:10:27.481Z,5.5
2023-02-04T12:11:35.807Z,5.5
2023-02-04T12:12:44.336Z,3.1
2023-02-04T12:13:52.656Z,3.1
2023-02-04T12:15:01.038Z,3.1
2023-02-04T12:16:09.669Z,2
2023-02-04T12:17:17.905Z,2
2023-02-04T12:18:26.226Z,2
2023-02-04T12:19:34.776Z,2.1
2023-02-04T12:20:43.100Z,2.1
2023-02-04T12:21:51.450Z,2.1
2023-02-04T12:23:00.005Z,4.8
2023-02-04T12:24:08.323Z,4.8
2023-02-04T12:25:16.656Z,4.8
2023-02-04T12:26:25.193Z,3.9
2023-02-04T12:27:33.540Z,3.9
2023-02-04T12:28:41.852Z,3.9
2023-02-04T12:29:50.373Z,25.4
2023-02-04T12:30:58.840Z,25.4
2023-02-04T12:32:07.102Z,25.4
2023-02-04T12:33:15.632Z,3.4
2023-02-04T12:34:23.966Z,3.4
2023-02-04T12:35:32.601Z,3.4
2023-02-04T12:36:40.881Z,2.4
2023-02-04T12:37:49.209Z,2.4
2023-02-04T12:38:57.514Z,2.4
2023-02-04T12:40:06.047Z,3.5
2023-02-04T12:41:14.397Z,3.5
2023-02-04T12:42:22.700Z,3.5
2023-02-04T12:43:31.229Z,3.9
2023-02-04T12:44:39.561Z,3.9
2023-02-04T12:45:47.900Z,3.9
2023-02-04T12:46:56.596Z,11.3
2023-02-04T12:48:04.777Z,11.3
2023-02-04T12:49:13.108Z,11.3
2023-02-04T12:50:21.649Z,12.4
2023-02-04T12:51:29.982Z,12.4
2023-02-04T12:52:38.304Z,12.4
2023-02-04T12:53:46.834Z,3.4
2023-02-04T12:54:55.165Z,3.4
2023-02-04T12:56:03.478Z,3.4
2023-02-04T12:57:12.014Z,15.5
2023-02-04T12:58:20.331Z,15.5
2023-02-04T12:59:28.663Z,15.5
2023-02-04T13:00:37.204Z,7.7
2023-02-04T13:01:45.558Z,7.7
2023-02-04T13:02:53.868Z,7.7
2023-02-04T13:04:02.350Z,13
2023-02-04T13:05:10.693Z,13
2023-02-04T13:06:19.015Z,13
2023-02-04T13:07:27.571Z,12.8
2023-02-04T13:08:35.917Z,12.8
2023-02-04T13:09:44.225Z,12.8
2023-02-04T13:10:52.759Z,19
2023-02-04T13:12:01.119Z,19
2023-02-04T13:13:09.453Z,19
2023-02-04T13:14:18.010Z,21.700001
2023-02-04T13:15:26.317Z,21.700001
2023-02-04T13:16:34.691Z,21.700001
2023-02-04T13:17:43.226Z,7.9
2023-02-04T13:18:51.555Z,7.9
2023-02-04T13:19:59.857Z,7.9
2023-02-04T13:21:08.403Z,3.2
2023-02-04T13:22:16.737Z,3.2
2023-02-04T13:23:25.079Z,3.2
2023-02-04T13:24:33.598Z,9.9
2023-02-04T13:25:41.919Z,9.9
2023-02-04T13:26:50.256Z,9.9
2023-02-04T13:27:58.855Z,10
2023-02-04T13:29:07.138Z,10
2023-02-04T13:30:15.477Z,10
2023-02-04T13:31:24.034Z,1.8
2023-02-04T13:32:32.352Z,1.8
2023-02-04T13:33:40.668Z,1.8
2023-02-04T13:34:49.229Z,2.9
2023-02-04T13:35:57.550Z,2.9
2023-02-04T13:37:05.894Z,2.9
2023-02-04T13:38:14.432Z,5.6
2023-02-04T13:39:22.778Z,5.6
2023-02-04T13:40:31.100Z,5.6
2023-02-04T13:41:39.645Z,4.3
2023-02-04T13:42:48.017Z,4.3
2023-02-04T13:43:56.327Z,4.3
2023-02-04T13:45:04.862Z,11.2
2023-02-04T13:46:13.222Z,11.2
2023-02-04T13:47:21.542Z,11.2
2023-02-04T13:48:30.104Z,8
2023-02-04T13:49:38.431Z,8
2023-02-04T13:50:46.795Z,8
2023-02-04T13:51:55.320Z,3.3
2023-02-04T13:53:03.651Z,3.3
2023-02-04T13:54:11.972Z,3.3
2023-02-04T13:55:20.504Z,10.4
2023-02-04T13:56:28.837Z,10.4
2023-02-04T13:57:37.177Z,10.4
2023-02-04T13:58:45.712Z,5.7
2023-02-04T13:59:54.047Z,5.7
2023-02-04T14:01:02.436Z,5.7
2023-02-04T14:02:10.956Z,2.8
2023-02-04T14:03:19.271Z,2.8
2023-02-04T14:04:27.596Z,2.8
2023-02-04T14:05:36.136Z,1.6
2023-02-04T14:06:44.524Z,1.6
2023-02-04T14:07:52.833Z,1.6
2023-02-04T14:09:01.380Z,3.3
2023-02-04T14:10:09.712Z,3.3
2023-02-04T14:11:18.032Z,3.3
2023-02-04T14:12:26.574Z,11.7
2023-02-04T14:13:34.885Z,11.7
2023-02-04T14:14:43.198Z,11.7
2023-02-04T14:15:51.721Z,19.6
2023-02-04T14:17:00.082Z,19.6
2023-02-04T14:18:08.368Z,19.6
2023-02-04T14:19:16.894Z,8.1
2023-02-04T14:20:25.253Z,8.1
2023-02-04T14:21:33.581Z,8.1
2023-02-04T14:22:42.154Z,41.099998
2023-02-04T14:23:50.501Z,41.099998
2023-02-04T14:24:58.815Z,41.099998
2023-02-04T14:26:07.337Z,54
2023-02-04T14:27:15.771Z,54
2023-02-04T14:28:24.162Z,54
2023-02-04T14:29:32.623Z,19.299999
2023-02-04T14:30:40.993Z,19.299999
2023-02-04T15:04:21.043Z,0
2023-02-04T15:05:29.328Z,0
2023-02-04T15:06:37.646Z,0
2023-02-04T15:07:46.177Z,3.7
2023-02-04T15:08:54.522Z,3.7
2023-02-04T15:10:02.864Z,3.7
2023-02-04T15:11:11.383Z,5.3
2023-02-04T15:12:19.713Z,5.3
2023-02-04T15:13:28.049Z,5.3
2023-02-04T15:14:36.579Z,5.9
2023-02-04T15:15:44.912Z,5.9
2023-02-04T15:16:53.262Z,5.9
2023-02-04T15:18:01.798Z,10.7
2023-02-04T15:19:10.133Z,10.7
2023-02-04T15:20:18.479Z,10.7
2023-02-04T15:21:27.017Z,9.8
2023-02-04T15:22:35.314Z,9.8
2023-02-04T15:23:43.628Z,9.8
2023-02-04T15:24:52.162Z,17.799999
2023-02-04T15:26:00.500Z,17.799999
2023-02-04T15:27:08.824Z,17.799999
2023-02-04T15:28:17.456Z,14.1
2023-02-04T15:29:25.677Z,14.1
2023-02-04T15:30:34.342Z,14.1
2023-02-04T15:31:42.695Z,22.200001
2023-02-04T15:32:50.950Z,22.200001
2023-02-04T15:33:59.267Z,22.200001
2023-02-04T15:35:07.796Z,25.299999
2023-02-04T15:36:16.275Z,25.299999
2023-02-04T15:37:24.600Z,25.299999
2023-02-04T15:38:33.189Z,38.5
2023-02-04T15:39:41.548Z,38.5
2023-02-04T15:40:49.872Z,38.5
2023-02-04T15:41:58.455Z,12.9
2023-02-04T15:43:06.793Z,12.9
2023-02-04T15:44:15.137Z,12.9
2023-02-04T15:45:23.668Z,24.200001
2023-02-04T15:46:32.108Z,24.200001
2023-02-04T15:47:40.357Z,24.200001
2023-02-04T15:48:48.884Z,34.5
2023-02-04T15:49:57.207Z,34.5
2023-02-04T15:51:05.544Z,34.5
2023-02-04T15:52:23.936Z,8.1
2023-02-04T15:53:22.377Z,8.1
2023-02-04T15:54:30.705Z,8.1
2023-02-04T15:55:39.257Z,7.8
2023-02-04T15:56:47.606Z,7.8
2023-02-04T15:57:55.928Z,7.8
2023-02-04T15:59:04.452Z,5
2023-02-04T16:00:12.780Z,5
2023-02-04T16:01:21.117Z,5
2023-02-04T16:02:29.678Z,2.6
2023-02-04T16:03:37.970Z,2.6
2023-02-04T16:04:46.285Z,2.6
2023-02-04T16:05:54.810Z,2.4
2023-02-04T16:07:03.133Z,2.4
2023-02-04T16:08:11.504Z,2.4